createdAt,value
2023-02-02T00:02:03.075Z,101045.13
2023-02-02T00:04:36.830Z,101046.59
2023-02-02T00:07:07.843Z,101047.41
2023-02-02T00:09:39.467Z,101049.03
2023-02-02T00:12:10.486Z,101045.91
2023-02-02T00:14:40.521Z,101038.41
2023-02-02T00:17:14.991Z,101053.16
2023-02-02T00:19:47.206Z,101046.75
2023-02-02T00:22:18.053Z,101037.25
2023-02-02T00:24:49.586Z,101048.09
2023-02-02T00:27:22.250Z,101030.56
2023-02-02T00:29:54.212Z,101042.81
2023-02-02T00:32:24.653Z,101040.84
2023-02-02T00:34:55.686Z,101039.19
2023-02-02T00:37:26.380Z,101023.84
2023-02-02T00:39:58.507Z,101045.47
2023-02-02T00:42:29.085Z,101050.25
2023-02-02T00:45:25.045Z,101057.16
2023-02-02T00:47:55.692Z,101058.00
2023-02-02T00:50:26.660Z,101063.22
2023-02-02T00:53:00.024Z,101055.19
2023-02-02T00:55:31.720Z,101068.31
2023-02-02T00:58:02.288Z,101059.13
2023-02-02T01:00:33.037Z,101067.81
2023-02-02T01:03:04.947Z,101063.06
2023-02-02T01:05:36.559Z,101060.28
2023-02-02T01:08:07.331Z,101059.13
2023-02-02T01:10:39.958Z,101056.81
2023-02-02T01:13:10.196Z,101059.28
2023-02-02T01:15:40.772Z,101085.72
2023-02-02T01:18:11.041Z,101099.03
2023-02-02T01:20:40.867Z,101119.38
2023-02-02T01:23:11.891Z,101109.69
2023-02-02T01:25:44.582Z,101123.47
2023-02-02T01:28:15.305Z,101137.88
2023-02-02T01:30:45.871Z,101125.66
2023-02-02T01:33:16.717Z,101106.31
2023-02-02T01:35:49.628Z,101103.66
2023-02-02T01:38:21.554Z,101108.25
2023-02-02T01:40:56.119Z,101096.91
2023-02-02T01:43:29.227Z,101092.31
2023-02-02T01:46:01.438Z,101090.47
2023-02-02T01:48:37.054Z,101091.91
2023-02-02T01:51:12.587Z,101098.16
2023-02-02T01:53:46.859Z,101108.81
2023-02-02T01:56:29.747Z,101105.50
2023-02-02T01:59:01.606Z,101112.56
2023-02-02T02:01:32.089Z,101104.81
2023-02-02T02:04:02.936Z,101107.09
2023-02-02T02:06:33.759Z,101099.06
2023-02-02T02:09:07.299Z,101103.00
2023-02-02T02:11:40.283Z,101101.34
2023-02-02T02:14:31.049Z,101096.91
2023-02-02T02:17:28.480Z,101108.38
2023-02-02T02:20:59.210Z,101104.75
2023-02-02T02:24:33.383Z,101096.22
2023-02-02T02:27:49.202Z,101101.63
2023-02-02T02:31:12.033Z,101113.91
2023-02-02T02:33:54.801Z,101125.03
2023-02-02T02:36:42.880Z,101137.50
2023-02-02T02:39:23.681Z,101134.44
2023-02-02T02:42:02.254Z,101148.03
2023-02-02T02:44:35.523Z,101137.72
2023-02-02T02:47:06.911Z,101144.91
2023-02-02T02:49:45.883Z,101144.91
2023-02-02T02:52:17.287Z,101163.78
2023-02-02T02:54:53.045Z,101161.00
2023-02-02T02:58:03.867Z,101169.38
2023-02-02T03:01:04.560Z,101168.06
2023-02-02T03:04:00.854Z,101178.06
2023-02-02T03:06:45.321Z,101199.72
2023-02-02T03:09:23.945Z,101214.16
2023-02-02T03:11:54.833Z,101224.50
2023-02-02T03:14:24.746Z,101227.28
2023-02-02T03:16:54.863Z,101226.94
2023-02-02T03:19:25.204Z,101224.50
2023-02-02T03:21:58.133Z,101223.66
2023-02-02T03:24:28.350Z,101232.00
2023-02-02T03:26:58.995Z,101224.50
2023-02-02T03:29:30.797Z,101242.03
2023-02-02T03:32:01.065Z,101239.25
2023-02-02T03:34:30.982Z,101258.75
2023-02-02T03:37:03.644Z,101252.38
2023-02-02T03:39:33.857Z,101253.19
2023-02-02T03:42:03.974Z,101257.94
2023-02-02T03:44:34.633Z,101259.88
2023-02-02T03:47:04.979Z,101249.91
2023-02-02T03:49:35.403Z,101251.03
2023-02-02T03:52:09.098Z,101247.75
2023-02-02T03:54:39.104Z,101256.41
2023-02-02T03:57:09.628Z,101246.41
2023-02-02T03:59:41.227Z,101253.94
2023-02-02T04:02:12.533Z,101253.94
2023-02-02T04:04:43.233Z,101249.81
2023-02-02T04:07:15.019Z,101249.81
2023-02-02T04:09:45.810Z,101249.81
2023-02-02T04:12:16.427Z,101247.38
2023-02-02T04:14:47.010Z,101255.72
2023-02-02T04:17:17.130Z,101252.94
2023-02-02T04:19:47.255Z,101257.34
2023-02-02T04:22:19.787Z,101252.63
2023-02-02T04:24:50.563Z,101260.66
2023-02-02T04:27:21.085Z,101290.16
2023-02-02T04:29:51.825Z,101274.28
2023-02-02T04:32:21.782Z,101277.88
2023-02-02T04:34:52.699Z,101283.66
2023-02-02T04:37:25.508Z,101293.03
2023-02-02T04:39:56.226Z,101306.31
2023-02-02T04:42:26.937Z,101300.97
2023-02-02T04:44:57.724Z,101296.72
2023-02-02T04:47:28.207Z,101322.31
2023-02-02T04:49:58.761Z,101329.56
2023-02-02T04:52:32.448Z,101325.94
2023-02-02T04:55:03.817Z,101322.81
2023-02-02T04:57:34.914Z,101318.41
2023-02-02T05:00:05.538Z,101322.81
2023-02-02T05:02:39.160Z,101311.66
2023-02-02T05:05:14.030Z,101319.22
2023-02-02T05:07:45.986Z,101329.22
2023-02-02T05:10:16.105Z,101334.81
2023-02-02T05:12:46.298Z,101334.47
2023-02-02T05:15:16.698Z,101335.63
2023-02-02T05:17:46.684Z,101353.47
2023-02-02T05:20:18.198Z,101354.31
2023-02-02T05:22:52.341Z,101355.03
2023-02-02T05:25:28.323Z,101352.00
2023-02-02T05:27:59.076Z,101355.88
2023-02-02T05:30:32.083Z,101364.72
2023-02-02T05:33:03.502Z,101369.28
2023-02-02T05:35:33.685Z,101373.00
2023-02-02T05:38:06.737Z,101375.88
2023-02-02T05:40:38.118Z,101369.56
2023-02-02T05:43:08.875Z,101382.47
2023-02-02T05:45:40.231Z,101378.94
2023-02-02T05:48:11.532Z,101380.47
2023-02-02T05:50:42.407Z,101382.47
2023-02-02T05:53:17.377Z,101380.56
2023-02-02T05:55:47.348Z,101377.47
2023-02-02T05:58:18.025Z,101381.88
2023-02-02T06:00:48.695Z,101395.53
2023-02-02T06:03:19.280Z,101403.94
2023-02-02T06:05:50.015Z,101393.72
2023-02-02T06:08:22.130Z,101410.34
2023-02-02T06:10:52.788Z,101401.28
2023-02-02T06:13:22.780Z,101408.88
2023-02-02T06:15:52.978Z,101419.25
2023-02-02T06:18:22.928Z,101421.59
2023-02-02T06:21:00.113Z,101421.25
2023-02-02T06:23:33.117Z,101426.66
2023-02-02T06:26:05.330Z,101423.38
2023-02-02T06:28:35.941Z,101430.28
2023-02-02T06:31:11.154Z,101434.22
2023-02-02T06:33:41.328Z,101446.13
2023-02-02T06:36:11.649Z,101447.09
2023-02-02T06:38:52.895Z,101449.25
2023-02-02T06:41:23.168Z,101458.47
2023-02-02T06:43:54.569Z,101463.72
2023-02-02T06:46:25.480Z,101461.72
2023-02-02T06:48:56.158Z,101456.13
2023-02-02T06:51:26.135Z,101464.19
2023-02-02T06:53:59.638Z,101457.91
2023-02-02T06:56:30.442Z,101458.38
2023-02-02T06:59:01.195Z,101460.38
2023-02-02T07:01:31.966Z,101463.34
2023-02-02T07:04:02.269Z,101466.97
2023-02-02T07:06:33.017Z,101471.75
2023-02-02T07:09:05.707Z,101471.78
2023-02-02T07:11:39.786Z,101475.06
2023-02-02T07:14:12.417Z,101465.72
2023-02-02T07:16:42.491Z,101477.78
2023-02-02T07:19:12.725Z,101482.38
2023-02-02T07:21:43.603Z,101481.22
2023-02-02T07:24:16.551Z,101483.16
2023-02-02T07:26:48.027Z,101495.69
2023-02-02T07:29:19.667Z,101500.97
2023-02-02T07:31:50.826Z,101516.78
2023-02-02T07:34:21.765Z,101523.88
2023-02-02T07:36:57.542Z,101523.38
2023-02-02T07:39:30.231Z,101528.50
2023-02-02T07:42:01.043Z,101534.09
2023-02-02T07:44:32.165Z,101547.28
2023-02-02T07:47:02.941Z,101539.22
2023-02-02T07:49:33.022Z,101551.09
2023-02-02T07:52:03.593Z,101554.53
2023-02-02T07:54:36.185Z,101544.00
2023-02-02T07:57:07.262Z,101550.56
2023-02-02T07:59:38.188Z,101538.41
2023-02-02T08:02:09.090Z,101551.09
2023-02-02T08:04:40.481Z,101547.28
2023-02-02T08:07:11.909Z,101549.28
2023-02-02T08:09:50.162Z,101548.59
2023-02-02T08:12:22.123Z,101548.09
2023-02-02T08:14:53.771Z,101539.38
2023-02-02T08:17:25.021Z,101550.59
2023-02-02T08:19:57.393Z,101549.41
2023-02-02T08:22:27.744Z,101555.84
2023-02-02T08:25:00.107Z,101546.94
2023-02-02T08:27:31.118Z,101549.25
2023-02-02T08:30:01.540Z,101549.72
2023-02-02T08:32:33.951Z,101557.34
2023-02-02T08:35:04.618Z,101553.19
2023-02-02T08:37:35.722Z,101550.22
2023-02-02T08:40:09.779Z,101554.00
2023-02-02T08:42:39.850Z,101544.06
2023-02-02T08:46:12.515Z,101552.19
2023-02-02T08:48:11.598Z,101550.84
2023-02-02T08:50:43.533Z,101549.88
2023-02-02T08:53:14.664Z,101556.16
2023-02-02T08:55:47.109Z,101550.03
2023-02-02T08:58:17.924Z,101541.16
2023-02-02T09:00:48.580Z,101541.47
2023-02-02T09:03:19.507Z,101547.94
2023-02-02T09:05:49.664Z,101535.88
2023-02-02T09:08:20.352Z,101539.16
2023-02-02T09:10:53.244Z,101532.91
2023-02-02T09:13:23.375Z,101537.50
2023-02-02T09:15:53.384Z,101532.53
2023-02-02T09:18:23.915Z,101528.03
2023-02-02T09:20:54.884Z,101530.00
2023-02-02T09:23:26.438Z,101519.09
2023-02-02T09:25:58.408Z,101518.56
2023-02-02T09:28:30.206Z,101508.78
2023-02-02T09:31:04.292Z,101515.88
2023-02-02T09:33:35.043Z,101504.78
2023-02-02T09:36:11.877Z,101501.00
2023-02-02T09:38:43.602Z,101501.13
2023-02-02T09:42:03.915Z,101491.69
2023-02-02T09:45:06.471Z,101495.00
2023-02-02T09:48:00.776Z,101483.41
2023-02-02T09:50:56.210Z,101492.31
2023-02-02T09:53:54.601Z,101487.19
2023-02-02T09:56:32.284Z,101483.22
2023-02-02T09:59:19.223Z,101485.31
2023-02-02T10:01:59.530Z,101474.09
2023-02-02T10:04:36.965Z,101480.06
2023-02-02T10:07:15.669Z,101482.03
2023-02-02T10:09:53.226Z,101481.56
2023-02-02T10:12:37.709Z,101482.72
2023-02-02T10:15:23.825Z,101487.19
2023-02-02T10:18:06.359Z,101481.91
2023-02-02T10:20:47.212Z,101488.66
2023-02-02T10:23:28.835Z,101490.19
2023-02-02T10:26:07.422Z,101507.38
2023-02-02T10:28:57.096Z,101506.06
2023-02-02T10:31:45.324Z,101510.72
2023-02-02T10:34:41.885Z,101509.72
2023-02-02T10:37:47.576Z,101508.75
2023-02-02T10:40:57.770Z,101506.25
2023-02-02T10:44:00.323Z,101508.59
2023-02-02T10:46:39.122Z,101505.31
2023-02-02T10:49:24.384Z,101500.84
2023-02-02T10:52:08.636Z,101510.78
2023-02-02T10:54:58.100Z,101511.31
2023-02-02T10:57:56.172Z,101511.00
2023-02-02T11:00:35.554Z,101505.56
2023-02-02T11:03:07.643Z,101505.44
2023-02-02T11:05:58.031Z,101503.63
2023-02-02T11:08:35.831Z,101517.81
2023-02-02T11:11:19.923Z,101505.16
2023-02-02T11:13:59.147Z,101500.19
2023-02-02T11:16:42.601Z,101507.31
2023-02-02T11:19:32.586Z,101500.41
2023-02-02T11:22:06.550Z,101506.34
2023-02-02T11:24:49.995Z,101507.81
2023-02-02T11:27:25.937Z,101508.16
2023-02-02T11:30:00.211Z,101506.88
2023-02-02T11:32:35.557Z,101515.59
2023-02-02T11:35:21.986Z,101510.31
2023-02-02T11:38:13.103Z,101511.78
2023-02-02T11:40:54.928Z,101509.00
2023-02-02T11:43:33.508Z,101522.16
2023-02-02T11:46:09.739Z,101528.63
2023-02-02T11:48:50.215Z,101534.53
2023-02-02T11:51:27.545Z,101535.38
2023-02-02T11:54:08.675Z,101518.56
2023-02-02T11:56:42.323Z,101525.81
2023-02-02T11:59:34.066Z,101527.50
2023-02-02T12:02:32.464Z,101529.16
2023-02-02T12:05:39.478Z,101530.31
2023-02-02T12:08:14.673Z,101537.03
2023-02-02T12:10:52.299Z,101536.19
2023-02-02T12:13:53.913Z,101523.66
2023-02-02T12:16:54.511Z,101531.59
2023-02-02T12:20:08.121Z,101532.41
2023-02-02T12:23:20.710Z,101532.72
2023-02-02T12:26:21.998Z,101530.78
2023-02-02T12:29:38.557Z,101533.56
2023-02-02T12:32:36.220Z,101543.13
2023-02-02T12:35:38.949Z,101535.88
2023-02-02T12:39:12.458Z,101547.09
2023-02-02T12:42:36.333Z,101546.94
2023-02-02T12:45:49.226Z,101542.50
2023-02-02T12:48:45.407Z,101540.50
2023-02-02T12:51:41.368Z,101544.13
2023-02-02T12:54:45.457Z,101550.56
2023-02-02T12:57:29.173Z,101548.91
2023-02-02T13:00:53.568Z,101548.75
2023-02-02T13:03:38.234Z,101548.25
2023-02-02T13:09:57.534Z,101550.44
2023-02-02T13:12:37.143Z,101556.03
2023-02-02T13:15:15.726Z,101553.22
2023-02-02T13:17:57.003Z,101569.19
2023-02-02T13:20:46.874Z,101563.94
2023-02-02T13:23:25.357Z,101571.84
2023-02-02T13:26:04.734Z,101571.00
2023-02-02T13:28:45.550Z,101570.84
2023-02-02T13:31:23.532Z,101581.59
2023-02-02T13:34:08.069Z,101576.28
2023-02-02T13:36:45.660Z,101572.19
2023-02-02T13:39:24.931Z,101578.94
2023-02-02T13:41:56.542Z,101577.94
2023-02-02T13:44:36.568Z,101583.06
2023-02-02T13:47:20.880Z,101591.78
2023-02-02T13:50:05.150Z,101588.97
2023-02-02T13:53:02.438Z,101586.50
2023-02-02T13:56:06.595Z,101596.41
2023-02-02T13:58:56.746Z,101593.09
2023-02-02T14:01:30.596Z,101591.44
2023-02-02T14:04:05.019Z,101585.03
2023-02-02T14:06:59.484Z,101596.56
2023-02-02T14:09:34.853Z,101595.41
2023-02-02T14:12:10.786Z,101592.59
2023-02-02T14:14:48.533Z,101598.53
2023-02-02T14:17:56.139Z,101595.25
2023-02-02T14:20:51.656Z,101603.97
2023-02-02T14:23:56.831Z,101601.81
2023-02-02T14:26:49.500Z,101605.28
2023-02-02T14:30:01.713Z,101610.38
2023-02-02T14:32:43.691Z,101614.34
2023-02-02T14:36:14.288Z,101611.03
2023-02-02T14:39:19.449Z,101614.28
2023-02-02T14:42:39.751Z,101612.13
2023-02-02T14:45:34.116Z,101611.97
2023-02-02T14:48:13.446Z,101625.47
2023-02-02T14:50:55.702Z,101627.75
2023-02-02T14:53:31.029Z,101628.94
2023-02-02T14:56:10.082Z,101632.88
2023-02-02T14:58:46.854Z,101634.84
2023-02-02T15:01:28.829Z,101638.47
2023-02-02T15:04:20.179Z,101642.41
2023-02-02T15:06:53.244Z,101648.03
2023-02-02T15:09:39.771Z,101643.22
2023-02-02T15:12:38.856Z,101638.78
2023-02-02T15:15:30.114Z,101650.31
2023-02-02T15:18:18.097Z,101641.41
2023-02-02T15:20:53.040Z,101651.78
2023-02-02T15:23:34.062Z,101656.03
2023-02-02T15:26:10.481Z,101649.97
2023-02-02T15:28:51.531Z,101650.59
2023-02-02T15:31:32.390Z,101654.03
2023-02-02T15:34:07.468Z,101653.06
2023-02-02T15:36:41.759Z,101652.53
2023-02-02T15:39:29.253Z,101666.88
2023-02-02T15:42:19.397Z,101652.38
2023-02-02T15:44:52.454Z,101658.28
2023-02-02T15:47:31.847Z,101659.44
2023-02-02T15:50:03.824Z,101656.94
2023-02-02T15:52:38.631Z,101655.28
2023-02-02T15:55:25.581Z,101659.25
2023-02-02T15:57:56.481Z,101665.97
2023-02-02T16:00:33.885Z,101676.88
2023-02-02T16:03:12.998Z,101678.00
2023-02-02T16:05:51.657Z,101680.81
2023-02-02T16:08:28.952Z,101679.16
2023-02-02T16:11:11.405Z,101675.56
2023-02-02T16:13:43.450Z,101686.22
2023-02-02T16:16:29.481Z,101693.78
2023-02-02T16:19:15.373Z,101691.31
2023-02-02T16:21:54.709Z,101701.69
2023-02-02T16:24:31.952Z,101697.25
2023-02-02T16:27:07.571Z,101701.19
2023-02-02T16:29:39.441Z,101700.34
2023-02-02T16:32:33.073Z,101702.63
2023-02-02T16:35:06.682Z,101704.94
2023-02-02T16:37:39.036Z,101708.88
2023-02-02T16:40:22.920Z,101706.72
2023-02-02T16:43:08.697Z,101713.78
2023-02-02T16:45:49.516Z,101722.19
2023-02-02T16:48:40.861Z,101726.13
2023-02-02T16:51:29.146Z,101725.31
2023-02-02T16:54:04.267Z,101726.13
2023-02-02T16:56:39.485Z,101726.94
2023-02-02T16:59:20.532Z,101724.13
2023-02-02T17:01:56.826Z,101741.75
2023-02-02T17:04:34.610Z,101743.41
2023-02-02T17:07:13.971Z,101747.03
2023-02-02T17:09:46.481Z,101740.63
2023-02-02T17:12:35.661Z,101744.22
2023-02-02T17:15:32.742Z,101768.59
2023-02-02T17:18:06.475Z,101761.69
2023-02-02T17:20:39.134Z,101760.03
2023-02-02T17:23:11.547Z,101763.13
2023-02-02T17:25:45.799Z,101766.25
2023-02-02T17:28:20.514Z,101782.19
2023-02-02T17:31:00.918Z,101793.69
2023-02-02T17:33:34.055Z,101799.63
2023-02-02T17:36:08.021Z,101787.06
2023-02-02T17:38:38.959Z,101768.94
2023-02-02T17:41:09.621Z,101749.50
2023-02-02T17:43:39.624Z,101744.34
2023-02-02T17:46:15.291Z,101744.44
2023-02-02T17:48:45.856Z,101751.00
2023-02-02T17:51:19.605Z,101764.97
2023-02-02T17:53:49.870Z,101771.72
2023-02-02T17:56:22.308Z,101774.53
2023-02-02T17:58:52.867Z,101786.53
2023-02-02T18:01:23.360Z,101792.13
2023-02-02T18:03:55.856Z,101787.66
2023-02-02T18:06:27.809Z,101790.47
2023-02-02T18:08:58.487Z,101793.56
2023-02-02T18:11:28.707Z,101797.50
2023-02-02T18:13:58.633Z,101799.47
2023-02-02T18:16:36.525Z,101793.88
2023-02-02T18:19:07.056Z,101797.00
2023-02-02T18:21:39.573Z,101801.44
2023-02-02T18:24:10.613Z,101797.00
2023-02-02T18:26:40.708Z,101796.19
2023-02-02T18:29:10.767Z,101792.22
2023-02-02T18:31:42.472Z,101798.13
2023-02-02T18:34:13.323Z,101794.53
2023-02-02T18:36:45.518Z,101794.53
2023-02-02T18:39:15.444Z,101795.66
2023-02-02T18:41:45.988Z,101803.19
2023-02-02T18:44:16.059Z,101800.41
2023-02-02T18:46:47.537Z,101800.72
2023-02-02T18:49:18.858Z,101801.88
2023-02-02T18:51:51.208Z,101799.91
2023-02-02T18:54:23.219Z,101813.06
2023-02-02T18:56:53.667Z,101808.59
2023-02-02T18:59:24.258Z,101813.06
2023-02-02T19:01:54.861Z,101811.41
2023-02-02T19:04:25.385Z,101806.66
2023-02-02T19:07:13.938Z,101817.00
2023-02-02T19:09:44.545Z,101816.16
2023-02-02T19:12:17.164Z,101819.25
2023-02-02T19:14:47.941Z,101816.28
2023-02-02T19:17:25.359Z,101816.06
2023-02-02T19:19:56.651Z,101813.41
2023-02-02T19:22:31.713Z,101826.66
2023-02-02T19:25:15.232Z,101818.09
2023-02-02T19:27:45.880Z,101822.63
2023-02-02T19:30:26.884Z,101818.50
2023-02-02T19:32:57.510Z,101822.72
2023-02-02T19:35:30.492Z,101829.75
2023-02-02T19:38:04.797Z,101842.06
2023-02-02T19:40:36.954Z,101851.38
2023-02-02T19:43:28.897Z,101850.34
2023-02-02T19:46:02.975Z,101854.06
2023-02-02T19:48:39.432Z,101848.56
2023-02-02T19:51:37.513Z,101845.25
2023-02-02T19:54:36.785Z,101843.91
2023-02-02T19:57:25.598Z,101849.50
2023-02-02T19:59:57.336Z,101855.91
2023-02-02T20:02:51.225Z,101848.03
2023-02-02T20:05:24.387Z,101843.59
2023-02-02T20:08:02.943Z,101853.63
2023-02-02T20:10:43.043Z,101844.75
2023-02-02T20:13:20.780Z,101849.50
2023-02-02T20:15:53.001Z,101853.41
2023-02-02T20:18:26.468Z,101855.06
2023-02-02T20:20:59.700Z,101870.19
2023-02-02T20:23:42.163Z,101873.28
2023-02-02T20:26:26.529Z,101866.03
2023-02-02T20:28:58.486Z,101865.50
2023-02-02T20:31:38.192Z,101871.41
2023-02-02T20:34:28.646Z,101867.28
2023-02-02T20:37:19.403Z,101868.41
2023-02-02T20:39:55.972Z,101852.81
2023-02-02T20:42:28.474Z,101865.91
2023-02-02T20:45:00.267Z,101868.19
2023-02-02T20:47:30.628Z,101867.16
2023-02-02T20:50:04.712Z,101857.44
2023-02-02T20:52:35.859Z,101856.91
2023-02-02T20:55:07.952Z,101866.09
2023-02-02T20:57:40.744Z,101860.84
2023-02-02T21:00:14.901Z,101861.44
2023-02-02T21:02:44.960Z,101865.38
2023-02-02T21:05:15.545Z,101862.06
2023-02-02T21:07:46.847Z,101866.00
2023-02-02T21:10:17.334Z,101870.75
2023-02-02T21:12:51.889Z,101874.66
2023-02-02T21:15:22.065Z,101871.06
2023-02-02T21:17:52.840Z,101869.94
2023-02-02T21:20:24.088Z,101867.41
2023-02-02T21:22:56.505Z,101871.38
2023-02-02T21:25:27.070Z,101869.72
2023-02-02T21:28:00.664Z,101868.06
2023-02-02T21:30:31.117Z,101868.34
2023-02-02T21:33:01.784Z,101873.44
2023-02-02T21:35:31.883Z,101867.00
2023-02-02T21:38:13.750Z,101870.91
2023-02-02T21:40:47.194Z,101863.19
2023-02-02T21:43:21.442Z,101858.72
2023-02-02T21:45:56.430Z,101863.47
2023-02-02T21:48:36.497Z,101863.47
2023-02-02T21:51:25.676Z,101860.69
2023-02-02T21:53:56.473Z,101862.13
2023-02-02T21:56:37.167Z,101866.56
2023-02-02T21:59:17.690Z,101867.69
2023-02-02T22:01:49.768Z,101862.13
2023-02-02T22:04:25.007Z,101861.00
2023-02-02T22:06:57.290Z,101867.38
2023-02-02T22:09:40.448Z,101851.50
2023-02-02T22:12:22.775Z,101848.69
2023-02-02T22:15:05.304Z,101850.63
2023-02-02T22:17:41.899Z,101832.25
2023-02-02T22:20:32.672Z,101844.53
2023-02-02T22:23:05.927Z,101837.59
2023-02-02T22:25:39.556Z,101841.53
2023-02-02T22:28:21.718Z,101843.81
2023-02-02T22:30:56.565Z,101837.72
2023-02-02T22:33:28.217Z,101834.41
2023-02-02T22:35:58.996Z,101829.13
2023-02-02T22:38:29.680Z,101825.50
2023-02-02T22:41:00.250Z,101835.00
2023-02-02T22:43:30.866Z,101830.53
2023-02-02T22:46:03.809Z,101834.78
2023-02-02T22:48:36.744Z,101827.81
2023-02-02T22:51:06.924Z,101827.28
2023-02-02T22:53:37.681Z,101832.34
2023-02-02T22:56:09.372Z,101829.88
2023-02-02T22:58:40.487Z,101826.88
2023-02-02T23:01:14.107Z,101825.22
2023-02-02T23:03:44.964Z,101816.31
2023-02-02T23:06:15.557Z,101820.53
2023-02-02T23:08:46.702Z,101820.00
2023-02-02T23:11:16.805Z,101815.03
2023-02-02T23:13:47.463Z,101810.59
2023-02-02T23:16:20.078Z,101812.25
2023-02-02T23:18:50.727Z,101818.66
2023-02-02T23:21:21.309Z,101814.75
2023-02-02T23:23:51.597Z,101811.44
2023-02-02T23:26:22.240Z,101811.13
2023-02-02T23:28:53.567Z,101812.25
2023-02-02T23:31:25.779Z,101811.44
2023-02-02T23:33:56.544Z,101816.69
2023-02-02T23:36:27.011Z,101820.34
2023-02-02T23:38:57.629Z,101821.16
2023-02-02T23:41:28.094Z,101817.22
2023-02-02T23:43:59.020Z,101807.19
2023-02-02T23:46:32.499Z,101804.41
2023-02-02T23:49:03.692Z,101809.47
2023-02-02T23:51:34.793Z,101820.94
2023-02-02T23:54:06.350Z,101810.09
2023-02-02T23:56:36.512Z,101805.63
2023-02-02T23:59:07.029Z,101796.75
